SAZM/MDD METAR and TAF weather

Enter ICAO airport designator
Station Type Date Time Source
SAZM METAR 2021/07/28 20:00 UTC NOAA

SAZM 282000Z 23009KT 180V250 9999 BKN043 07/M01 Q1024


Station Type Date Time Source
SAZM Decoded METAR 2021/07/28 20:00 UTC NOAA

Mar Del Plata Aerodrome, Argentina (SAZM) 37-56S 057-35W 21M
Jul 28, 2021 - 04:00 PM EDT / 2021.07.28 2000 UTC
Wind: from the SW (230 degrees) at 10 MPH (9 KT) (direction variable):0
Visibility: greater than 7 mile(s):0
Sky conditions: mostly cloudy
Temperature: 44 F (7 C)
Dew Point: 30 F (-1 C)
Relative Humidity: 56%
Pressure (altimeter): 30.24 in. Hg (1024 hPa)
ob: SAZM 282000Z 23009KT 180V250 9999 BKN043 07/M01 Q1024
cycle: 20

Station Type Date Time Source
SAZM TAF 2021/07/28 18:33 UTC NOAA

TAF TAF SAZM 281700Z 2818/2918 23015KT 9999 SCT030 BKN050 TX12/2918Z TN00/2910Z
BECMG 2822/2824 27010KT 9999 SCT030
BECMG 2913/2915 29010KT CAVOK

Example: see airport list